»·PEaware :: N137AL KSMX-KBFL

N137AL :: KSMX-KBFL

FLIGHT INFORMATION

Flight Status: Arrived
Operator: Privately registered:
United States
More flights under this callsign
Pilot: Aaron K. (32509)
Aircraft: CESSNA 172 SKYHAWK
(C172)
More flights by this aircraft type
Origin: KSMX Santa Maria Pub/Capt Hancock
United States
Destination: KBFL Meadows
United States
More flights between these airports :: More routes between these airports
Route:
File this flight plan on PilotEdge
Remarks:
Altitude:
(Current/Filed)
7,500ft
Speed:
(Current/Filed)
110kts
Departed: 10-Jan-21 01:17 PM
Arrived: 10-Jan-21 02:02 PM
Distance/Time
Traveled:
76nm/0:45
Distance/Time
To Go:
Arrived

Flight Plot

Page will automatically refresh every two minutes.


Map Options




Map Legend


Flown Route
Filed Route
Departure Airport
Arrival Airport
Navaid (VOR, NDB)
Fix

Horizontal Profiles

Position Reports

Time Latitude Longitude Heading Altitude Ground
Speed
10-Jan-21 12:52 34.897064 -120.446542 121 265ft 0kts
10-Jan-21 12:53 34.897064 -120.446542 121 265ft 0kts
10-Jan-21 12:54 34.897064 -120.446542 121 265ft 0kts
10-Jan-21 12:55 34.897064 -120.446542 121 265ft 0kts
10-Jan-21 12:56 34.897064 -120.446542 121 265ft 0kts
10-Jan-21 12:57 34.897064 -120.446542 121 265ft 0kts
10-Jan-21 12:58 34.897064 -120.446542 121 265ft 0kts
10-Jan-21 12:59 34.897064 -120.446542 121 265ft 0kts
10-Jan-21 13:00 34.897064 -120.446542 121 265ft 0kts
10-Jan-21 13:01 34.897064 -120.446542 121 265ft 0kts
10-Jan-21 13:02 34.897064 -120.446542 121 265ft 0kts
10-Jan-21 13:03 34.897064 -120.446542 121 265ft 0kts
10-Jan-21 13:04 34.897064 -120.446542 121 265ft 0kts
10-Jan-21 13:05 34.897064 -120.446542 121 265ft 0kts
10-Jan-21 13:06 34.897064 -120.446542 121 265ft 0kts
10-Jan-21 13:07 34.897064 -120.446542 121 265ft 0kts
10-Jan-21 13:08 34.897064 -120.446542 121 265ft 0kts
10-Jan-21 13:09 34.896554 -120.445699 314 265ft 0kts
10-Jan-21 13:10 34.896554 -120.445699 314 265ft 0kts
10-Jan-21 13:11 34.896557 -120.445703 308 265ft 0kts
10-Jan-21 13:12 34.895018 -120.444971 200 265ft 2kts
10-Jan-21 13:13 34.893377 -120.445210 185 265ft 0kts
10-Jan-21 13:14 34.893377 -120.445210 185 265ft 0kts
10-Jan-21 13:15 34.893110 -120.445269 200 265ft 10kts
10-Jan-21 13:16 34.902937 -120.455378 4 718ft 67kts
10-Jan-21 13:17 34.911874 -120.434252 70 1495ft 75kts
10-Jan-21 13:18 34.918382 -120.410901 70 2309ft 72kts
10-Jan-21 13:19 34.925276 -120.386225 70 2987ft 84kts
10-Jan-21 13:20 34.932461 -120.360528 70 3735ft 81kts
10-Jan-21 13:21 34.939851 -120.334170 71 4439ft 78kts
10-Jan-21 13:22 34.947043 -120.308646 70 5101ft 75kts
10-Jan-21 13:23 34.954261 -120.283139 70 5656ft 83kts
10-Jan-21 13:24 34.962380 -120.255778 68 6200ft 88kts
10-Jan-21 13:25 34.971988 -120.228111 65 6742ft 90kts
10-Jan-21 13:26 34.983593 -120.200402 55 7022ft 94kts
10-Jan-21 13:27 34.994407 -120.167929 78 7117ft 122kts
10-Jan-21 13:28 35.006542 -120.125392 67 6779ft 136kts
10-Jan-21 13:29 35.020469 -120.083884 67 6781ft 129kts
10-Jan-21 13:30 35.033939 -120.043537 67 6782ft 128kts
10-Jan-21 13:31 35.047406 -120.003128 67 6782ft 128kts
10-Jan-21 13:32 35.060894 -119.962602 67 6782ft 128kts
10-Jan-21 13:33 35.073119 -119.925648 67 6780ft 105kts
10-Jan-21 13:34 35.083367 -119.894863 67 6780ft 93kts
10-Jan-21 13:35 35.092810 -119.866520 67 6781ft 87kts
10-Jan-21 13:36 35.103686 -119.840934 62 6781ft 83kts
10-Jan-21 13:37 35.114768 -119.815002 62 6789ft 100kts
10-Jan-21 13:38 35.129059 -119.781414 62 6783ft 117kts
10-Jan-21 13:39 35.144351 -119.745338 62 6775ft 120kts
10-Jan-21 13:40 35.159742 -119.709102 62 6780ft 120kts
10-Jan-21 13:41 35.175193 -119.672733 62 6774ft 120kts
10-Jan-21 13:42 35.190824 -119.635879 62 6667ft 127kts
10-Jan-21 13:43 35.207047 -119.597420 62 6266ft 126kts
10-Jan-21 13:44 35.223140 -119.559391 62 5867ft 126kts
10-Jan-21 13:45 35.239280 -119.521214 62 5467ft 126kts
10-Jan-21 13:46 35.255463 -119.482892 62 5066ft 126kts
10-Jan-21 13:47 35.271637 -119.444543 62 4666ft 127kts
10-Jan-21 13:48 35.287848 -119.406068 62 4265ft 127kts
10-Jan-21 13:49 35.303973 -119.367750 62 3867ft 127kts
10-Jan-21 13:50 35.320173 -119.329207 62 3466ft 127kts
10-Jan-21 13:51 35.336356 -119.290661 62 3066ft 127kts
10-Jan-21 13:52 35.352547 -119.252052 62 2666ft 127kts
10-Jan-21 13:53 35.368772 -119.213317 62 2265ft 127kts
10-Jan-21 13:54 35.384985 -119.174566 62 1865ft 127kts
10-Jan-21 13:55 35.401144 -119.135885 63 1464ft 125kts
10-Jan-21 13:56 35.414058 -119.098814 69 1351ft 106kts
10-Jan-21 13:58 35.416311 -119.071012 140 1160ft 88kts
10-Jan-21 13:59 35.396956 -119.054782 123 937ft 82kts
10-Jan-21 14:00 35.408480 -119.035325 31 795ft 84kts
10-Jan-21 14:01 35.426528 -119.047452 314 552ft 68kts
10-Jan-21 14:02 35.437159 -119.058983 41 493ft 15kts
10-Jan-21 14:03 35.436957 -119.057703 119 495ft 15kts
10-Jan-21 14:04 35.431750 -119.051423 138 493ft 28kts
10-Jan-21 14:05 35.431669 -119.048496 35 499ft 0kts
10-Jan-21 14:06 35.431669 -119.048496 35 499ft 0kts
10-Jan-21 14:07 35.431669 -119.048496 35 499ft 0kts
10-Jan-21 14:08 35.431669 -119.048496 36 499ft 0kts
10-Jan-21 14:09 35.431669 -119.048496 36 499ft 0kts
10-Jan-21 14:10 35.431669 -119.048496 36 499ft 0kts
10-Jan-21 14:11 35.431669 -119.048496 36 499ft 0kts
10-Jan-21 14:12 35.431669 -119.048496 36 499ft 0kts
10-Jan-21 14:13 35.431669 -119.048496 36 499ft 0kts

Navigation Log

Ident Type
Flight plan parsing failed, navigation log unavailable